createdAt,value
2023-02-09T00:01:27.898Z,102860.60
2023-02-09T00:03:56.088Z,102855.36
2023-02-09T00:06:24.148Z,102854.91
2023-02-09T00:08:52.186Z,102854.51
2023-02-09T00:11:46.640Z,102856.55
2023-02-09T00:14:16.116Z,102853.45
2023-02-09T00:16:45.950Z,102851.05
2023-02-09T00:19:14.287Z,102848.67
2023-02-09T00:21:42.208Z,102848.84
2023-02-09T00:24:13.194Z,102848.30
2023-02-09T00:26:41.577Z,102846.60
2023-02-09T00:29:10.047Z,102846.81
2023-02-09T00:31:38.046Z,102845.95
2023-02-09T00:34:06.540Z,102840.30
2023-02-09T00:36:34.508Z,102837.06
2023-02-09T00:39:02.825Z,102835.48
2023-02-09T00:41:51.077Z,102829.80
2023-02-09T00:44:19.293Z,102827.53
2023-02-09T00:46:52.235Z,102826.54
2023-02-09T00:49:20.584Z,102822.95
2023-02-09T00:51:48.525Z,102821.45
2023-02-09T00:54:17.137Z,102820.62
2023-02-09T00:56:46.531Z,102824.23
2023-02-09T00:59:14.504Z,102824.13
2023-02-09T01:01:42.805Z,102817.09
2023-02-09T01:04:10.845Z,102817.71
2023-02-09T01:06:38.651Z,102818.30
2023-02-09T01:09:06.766Z,102822.23
2023-02-09T01:11:34.736Z,102819.82
2023-02-09T01:14:04.417Z,102818.13
2023-02-09T01:16:32.713Z,102817.80
2023-02-09T01:19:01.823Z,102818.19
2023-02-09T01:21:31.062Z,102814.73
2023-02-09T01:23:59.561Z,102813.17
2023-02-09T01:26:27.744Z,102808.20
2023-02-09T01:28:55.652Z,102806.02
2023-02-09T01:31:28.723Z,102805.89
2023-02-09T01:33:58.216Z,102804.58
2023-02-09T01:36:29.401Z,102791.42
2023-02-09T01:38:58.608Z,102795.52
2023-02-09T01:41:26.969Z,102794.63
2023-02-09T01:44:01.048Z,102793.09
2023-02-09T01:46:30.997Z,102785.66
2023-02-09T01:49:27.050Z,102787.27
2023-02-09T01:52:01.343Z,102790.25
2023-02-09T01:54:37.873Z,102787.95
2023-02-09T01:57:08.240Z,102784.65
2023-02-09T01:59:36.776Z,102780.65
2023-02-09T02:02:04.924Z,102781.44
2023-02-09T02:04:33.870Z,102779.90
2023-02-09T02:07:07.009Z,102774.40
2023-02-09T02:09:35.109Z,102772.12
2023-02-09T02:12:06.636Z,102773.77
2023-02-09T02:14:37.263Z,102772.42
2023-02-09T02:17:07.866Z,102773.54
2023-02-09T02:19:57.645Z,102779.09
2023-02-09T02:22:38.295Z,102779.73
2023-02-09T02:25:29.953Z,102777.52
2023-02-09T02:28:11.255Z,102778.22
2023-02-09T02:30:51.531Z,102779.09
2023-02-09T02:33:48.710Z,102777.36
2023-02-09T02:36:57.539Z,102774.17
2023-02-09T02:40:03.367Z,102773.98
2023-02-09T02:42:55.811Z,102774.66
2023-02-09T02:45:48.794Z,102769.92
2023-02-09T02:48:27.575Z,102767.89
2023-02-09T02:51:07.253Z,102765.81
2023-02-09T02:53:36.245Z,102763.80
2023-02-09T02:56:16.503Z,102764.67
2023-02-09T02:58:44.964Z,102768.48
2023-02-09T03:01:14.933Z,102769.40
2023-02-09T03:03:43.384Z,102768.14
2023-02-09T03:06:11.396Z,102767.94
2023-02-09T03:08:55.811Z,102769.29
2023-02-09T03:11:25.169Z,102761.76
2023-02-09T03:14:06.172Z,102761.63
2023-02-09T03:16:40.311Z,102754.86
2023-02-09T03:19:18.514Z,102753.88
2023-02-09T03:21:56.950Z,102747.73
2023-02-09T03:24:42.302Z,102746.89
2023-02-09T03:27:23.512Z,102747.91
2023-02-09T03:29:53.994Z,102747.73
2023-02-09T03:32:22.030Z,102747.90
2023-02-09T03:34:49.998Z,102744.63
2023-02-09T03:37:18.016Z,102741.86
2023-02-09T03:39:46.038Z,102739.16
2023-02-09T03:42:14.282Z,102735.73
2023-02-09T03:44:42.689Z,102737.48
2023-02-09T03:47:10.792Z,102738.64
2023-02-09T03:49:40.283Z,102739.40
2023-02-09T03:52:10.991Z,102740.41
2023-02-09T03:54:39.702Z,102738.13
2023-02-09T03:57:07.505Z,102736.84
2023-02-09T03:59:36.805Z,102737.02
2023-02-09T04:02:06.534Z,102741.92
2023-02-09T04:04:34.558Z,102739.23
2023-02-09T04:07:02.876Z,102741.13
2023-02-09T04:09:32.630Z,102745.92
2023-02-09T04:12:00.574Z,102742.25
2023-02-09T04:14:29.736Z,102742.79
2023-02-09T04:16:57.615Z,102745.70
2023-02-09T04:19:26.195Z,102745.98
2023-02-09T04:21:54.972Z,102748.45
2023-02-09T04:24:29.191Z,102746.85
2023-02-09T04:26:57.812Z,102746.86
2023-02-09T04:29:26.154Z,102745.81
2023-02-09T04:31:54.205Z,102742.13
2023-02-09T04:34:24.258Z,102741.21
2023-02-09T04:36:52.082Z,102742.39
2023-02-09T04:39:19.976Z,102741.31
2023-02-09T04:41:48.045Z,102735.64
2023-02-09T04:44:15.926Z,102734.08
2023-02-09T04:46:45.681Z,102733.31
2023-02-09T04:49:14.150Z,102727.96
2023-02-09T04:51:43.738Z,102729.64
2023-02-09T04:54:12.176Z,102722.39
2023-02-09T04:56:43.887Z,102716.36
2023-02-09T04:59:30.834Z,102710.27
2023-02-09T05:01:59.323Z,102707.16
2023-02-09T05:04:27.351Z,102703.53
2023-02-09T05:06:55.183Z,102700.40
2023-02-09T05:09:23.160Z,102703.90
2023-02-09T05:11:55.105Z,102703.11
2023-02-09T05:14:22.932Z,102701.05
2023-02-09T05:16:51.013Z,102710.48
2023-02-09T05:19:19.080Z,102713.52
2023-02-09T05:21:47.099Z,102705.08
2023-02-09T05:24:15.346Z,102711.15
2023-02-09T05:26:43.176Z,102712.23
2023-02-09T05:29:11.109Z,102711.80
2023-02-09T05:31:39.405Z,102709.66
2023-02-09T05:34:07.459Z,102713.02
2023-02-09T05:36:35.961Z,102710.77
2023-02-09T05:39:04.412Z,102706.99
2023-02-09T05:41:51.166Z,102703.91
2023-02-09T05:44:19.122Z,102702.73
2023-02-09T05:46:46.961Z,102702.83
2023-02-09T05:49:15.654Z,102701.63
2023-02-09T05:51:43.771Z,102702.70
2023-02-09T05:54:11.638Z,102697.14
2023-02-09T05:56:40.826Z,102695.88
2023-02-09T05:59:08.642Z,102692.77
2023-02-09T06:01:37.223Z,102692.52
2023-02-09T06:04:05.628Z,102686.99
2023-02-09T06:06:33.823Z,102687.05
2023-02-09T06:09:01.915Z,102680.27
2023-02-09T06:11:29.915Z,102678.90
2023-02-09T06:13:57.900Z,102679.58
2023-02-09T06:16:25.771Z,102680.81
2023-02-09T06:18:53.825Z,102676.64
2023-02-09T06:21:21.980Z,102677.91
2023-02-09T06:23:51.360Z,102671.77
2023-02-09T06:26:19.445Z,102674.75
2023-02-09T06:28:47.504Z,102679.10
2023-02-09T06:31:15.719Z,102681.53
2023-02-09T06:33:43.760Z,102679.68
2023-02-09T06:36:13.424Z,102677.65
2023-02-09T06:38:41.419Z,102681.27
2023-02-09T06:41:09.343Z,102683.21
2023-02-09T06:43:37.424Z,102683.79
2023-02-09T06:46:07.201Z,102688.64
2023-02-09T06:48:36.874Z,102691.03
2023-02-09T06:51:09.280Z,102687.46
2023-02-09T06:53:38.070Z,102688.06
2023-02-09T06:56:06.845Z,102690.69
2023-02-09T06:58:36.900Z,102690.34
2023-02-09T07:01:06.444Z,102697.45
2023-02-09T07:03:34.705Z,102688.80
2023-02-09T07:06:04.402Z,102687.05
2023-02-09T07:08:32.983Z,102689.41
2023-02-09T07:11:04.825Z,102687.76
2023-02-09T07:13:32.961Z,102687.09
2023-02-09T07:16:06.230Z,102693.27
2023-02-09T07:18:35.558Z,102684.52
2023-02-09T07:21:05.587Z,102685.88
2023-02-09T07:23:34.061Z,102684.08
2023-02-09T07:26:06.621Z,102680.52
2023-02-09T07:28:39.321Z,102680.09
2023-02-09T07:31:11.589Z,102672.37
2023-02-09T07:33:40.109Z,102671.52
2023-02-09T07:36:09.767Z,102671.55
2023-02-09T07:38:38.735Z,102674.16
2023-02-09T07:41:07.637Z,102672.15
2023-02-09T07:43:35.998Z,102668.45
2023-02-09T07:46:06.983Z,102669.21
2023-02-09T07:48:35.191Z,102662.27
2023-02-09T07:51:03.801Z,102660.15
2023-02-09T07:53:31.725Z,102659.08
2023-02-09T07:55:59.932Z,102660.55
2023-02-09T07:58:27.814Z,102659.58
2023-02-09T08:00:55.888Z,102659.19
2023-02-09T08:03:23.743Z,102657.92
2023-02-09T08:06:02.982Z,102655.77
2023-02-09T08:08:30.952Z,102657.71
2023-02-09T08:11:00.665Z,102658.09
2023-02-09T08:13:29.575Z,102661.73
2023-02-09T08:16:01.783Z,102661.07
2023-02-09T08:18:34.129Z,102664.40
2023-02-09T08:21:08.179Z,102663.23
2023-02-09T08:23:37.552Z,102666.10
2023-02-09T08:26:08.490Z,102663.23
2023-02-09T08:28:44.136Z,102662.14
2023-02-09T08:31:13.858Z,102653.95
2023-02-09T08:33:43.416Z,102654.40
2023-02-09T08:36:11.991Z,102648.05
2023-02-09T08:38:40.129Z,102645.85
2023-02-09T08:41:09.626Z,102647.64
2023-02-09T08:43:37.555Z,102638.81
2023-02-09T08:46:07.232Z,102643.48
2023-02-09T08:48:36.969Z,102644.37
2023-02-09T08:51:05.829Z,102647.98
2023-02-09T08:53:34.544Z,102646.77
2023-02-09T08:56:02.644Z,102646.23
2023-02-09T08:58:32.090Z,102643.77
2023-02-09T09:01:00.824Z,102635.41
2023-02-09T09:03:31.653Z,102633.62
2023-02-09T09:06:00.956Z,102625.74
2023-02-09T09:08:30.149Z,102623.57
2023-02-09T09:10:58.567Z,102620.85
2023-02-09T09:13:26.773Z,102618.31
2023-02-09T09:15:55.428Z,102618.05
2023-02-09T09:18:25.269Z,102606.77
2023-02-09T09:20:53.384Z,102603.50
2023-02-09T09:23:21.654Z,102600.92
2023-02-09T09:25:49.586Z,102595.94
2023-02-09T09:28:17.555Z,102587.60
2023-02-09T09:30:45.862Z,102582.91
2023-02-09T09:33:14.423Z,102577.88
2023-02-09T09:35:44.260Z,102572.36
2023-02-09T09:38:12.288Z,102568.36
2023-02-09T09:40:42.862Z,102562.10
2023-02-09T09:43:37.600Z,102562.27
2023-02-09T09:46:06.254Z,102559.66
2023-02-09T09:48:54.254Z,102562.80
2023-02-09T09:51:33.842Z,102560.04
2023-02-09T09:54:03.540Z,102550.63
2023-02-09T09:56:31.788Z,102550.63
2023-02-09T09:59:00.162Z,102541.22
2023-02-09T10:01:31.310Z,102534.93
2023-02-09T10:04:02.227Z,102528.99
2023-02-09T10:06:35.910Z,102527.95
2023-02-09T10:09:06.357Z,102523.92
2023-02-09T10:11:40.655Z,102522.90
2023-02-09T10:14:09.037Z,102515.56
2023-02-09T10:16:40.341Z,102509.62
2023-02-09T10:19:22.474Z,102505.41
2023-02-09T10:21:51.233Z,102497.54
2023-02-09T10:24:23.399Z,102498.38
2023-02-09T10:27:14.206Z,102490.33
2023-02-09T10:29:42.419Z,102485.39
2023-02-09T10:32:21.485Z,102482.58
2023-02-09T10:34:53.802Z,102473.83
2023-02-09T10:37:24.962Z,102468.23
2023-02-09T10:39:59.655Z,102463.69
2023-02-09T10:42:35.761Z,102463.69
2023-02-09T10:45:07.206Z,102456.35
2023-02-09T10:47:35.568Z,102452.02
2023-02-09T10:50:14.089Z,102453.79
2023-02-09T10:52:55.632Z,102450.32
2023-02-09T10:55:39.227Z,102448.80
2023-02-09T10:58:10.105Z,102448.14
2023-02-09T11:01:06.279Z,102445.90
2023-02-09T11:03:34.553Z,102439.67
2023-02-09T11:06:14.280Z,102437.80
2023-02-09T11:08:47.195Z,102438.52
2023-02-09T11:11:22.261Z,102433.83
2023-02-09T11:13:50.152Z,102430.90
2023-02-09T11:16:29.486Z,102426.40
2023-02-09T11:19:01.212Z,102422.59
2023-02-09T11:21:39.436Z,102417.19
2023-02-09T11:24:26.522Z,102421.02
2023-02-09T11:26:58.491Z,102422.61
2023-02-09T11:29:35.634Z,102420.19
2023-02-09T11:32:11.997Z,102415.48
2023-02-09T11:35:13.591Z,102414.98
2023-02-09T11:37:58.653Z,102413.76
2023-02-09T11:40:29.597Z,102410.27
2023-02-09T11:43:35.327Z,102406.77
2023-02-09T11:46:05.669Z,102401.39
2023-02-09T11:48:40.804Z,102395.64
2023-02-09T11:51:17.383Z,102397.73
2023-02-09T11:54:00.946Z,102395.65
2023-02-09T11:56:28.878Z,102393.73
2023-02-09T11:59:03.935Z,102387.45
2023-02-09T12:01:50.656Z,102382.57
2023-02-09T12:04:22.730Z,102379.09
2023-02-09T12:06:54.996Z,102373.70
2023-02-09T12:09:29.577Z,102373.17
2023-02-09T12:12:10.966Z,102367.61
2023-02-09T12:14:54.821Z,102368.66
2023-02-09T12:17:42.313Z,102362.05
2023-02-09T12:20:40.260Z,102359.43
2023-02-09T12:23:44.425Z,102357.00
2023-02-09T12:26:16.465Z,102360.65
2023-02-09T12:29:21.308Z,102357.52
2023-02-09T12:32:03.418Z,102352.48
2023-02-09T12:34:46.112Z,102347.44
2023-02-09T12:37:14.170Z,102354.02
2023-02-09T12:40:07.104Z,102356.98
2023-02-09T12:42:43.983Z,102358.02
2023-02-09T12:45:38.283Z,102358.70
2023-02-09T12:48:09.175Z,102355.05
2023-02-09T12:50:45.314Z,102353.48
2023-02-09T12:53:24.411Z,102344.45
2023-02-09T12:56:03.248Z,102338.00
2023-02-09T12:59:05.945Z,102334.00
2023-02-09T13:02:03.994Z,102327.05
2023-02-09T13:04:37.365Z,102325.31
2023-02-09T13:07:07.692Z,102327.73
2023-02-09T13:09:37.498Z,102330.34
2023-02-09T13:12:11.749Z,102336.23
2023-02-09T13:14:39.910Z,102332.76
2023-02-09T13:17:24.418Z,102329.95
2023-02-09T13:20:04.731Z,102329.05
2023-02-09T13:22:40.807Z,102330.43
2023-02-09T13:25:32.400Z,102329.38
2023-02-09T13:28:15.504Z,102330.76
2023-02-09T13:30:43.610Z,102327.45
2023-02-09T13:33:25.385Z,102327.60
2023-02-09T13:36:23.935Z,102322.04
2023-02-09T13:38:54.278Z,102316.29
2023-02-09T13:41:31.005Z,102316.06
2023-02-09T13:44:00.124Z,102312.06
2023-02-09T13:46:34.118Z,102312.05
2023-02-09T13:49:16.771Z,102311.85
2023-02-09T13:51:44.746Z,102306.11
2023-02-09T13:54:19.381Z,102304.19
2023-02-09T13:56:47.277Z,102303.30
2023-02-09T13:59:17.654Z,102303.83
2023-02-09T14:01:48.629Z,102306.05
2023-02-09T14:04:19.894Z,102301.83
2023-02-09T14:06:53.460Z,102304.08
2023-02-09T14:09:25.120Z,102300.40
2023-02-09T14:11:57.459Z,102299.52
2023-02-09T14:14:26.894Z,102298.95
2023-02-09T14:17:24.429Z,102300.84
2023-02-09T14:19:54.030Z,102297.17
2023-02-09T14:22:35.558Z,102292.45
2023-02-09T14:25:13.824Z,102295.17
2023-02-09T14:27:46.206Z,102298.25
2023-02-09T14:30:39.049Z,102296.82
2023-02-09T14:33:20.839Z,102292.95
2023-02-09T14:35:54.138Z,102293.08
2023-02-09T14:38:38.250Z,102289.36
2023-02-09T14:41:22.084Z,102289.13
2023-02-09T14:44:04.157Z,102283.17
2023-02-09T14:46:47.525Z,102281.55
2023-02-09T14:49:15.669Z,102279.23
2023-02-09T14:51:44.355Z,102277.93
2023-02-09T14:54:27.102Z,102278.20
2023-02-09T14:56:58.713Z,102275.35
2023-02-09T14:59:28.945Z,102278.91
2023-02-09T15:01:58.593Z,102276.89
2023-02-09T15:04:31.192Z,102281.11
2023-02-09T15:07:02.546Z,102281.69
2023-02-09T15:09:42.962Z,102279.67
2023-02-09T15:12:27.247Z,102282.45
2023-02-09T15:14:58.750Z,102284.05
2023-02-09T15:17:29.161Z,102286.87
2023-02-09T15:19:57.652Z,102285.23
2023-02-09T15:22:25.568Z,102287.40
2023-02-09T15:24:54.686Z,102288.70
2023-02-09T15:27:51.314Z,102285.38
2023-02-09T15:30:23.324Z,102279.64
2023-02-09T15:32:51.740Z,102277.35
2023-02-09T15:35:21.728Z,102279.73
2023-02-09T15:37:52.668Z,102276.02
2023-02-09T15:40:54.782Z,102276.13
2023-02-09T15:43:42.288Z,102268.91
2023-02-09T15:46:29.426Z,102276.35
2023-02-09T15:48:57.402Z,102276.70
2023-02-09T15:51:26.559Z,102280.37
2023-02-09T15:53:56.359Z,102273.81
2023-02-09T15:56:24.423Z,102275.01
2023-02-09T15:58:53.381Z,102275.53
2023-02-09T16:01:22.214Z,102276.39
2023-02-09T16:03:50.218Z,102271.52
2023-02-09T16:06:22.117Z,102270.48
2023-02-09T16:08:52.610Z,102274.62
2023-02-09T18:04:40.046Z,102232.38
2023-02-09T18:07:09.323Z,102229.55
2023-02-09T18:09:37.245Z,102223.84
2023-02-09T18:12:32.743Z,102221.95
2023-02-09T18:15:00.861Z,102211.59
2023-02-09T18:17:29.436Z,102210.41
2023-02-09T18:19:57.357Z,102210.38
2023-02-09T18:22:27.438Z,102210.81
2023-02-09T18:25:00.050Z,102211.54
2023-02-09T18:27:28.276Z,102209.23
2023-02-09T18:29:56.197Z,102204.98
2023-02-09T18:32:24.334Z,102207.90
2023-02-09T18:34:52.213Z,102205.77
2023-02-09T18:37:20.084Z,102210.02
2023-02-09T18:39:48.238Z,102208.73
2023-02-09T18:42:16.385Z,102208.11
2023-02-09T18:44:44.447Z,102209.66
2023-02-09T18:47:12.518Z,102211.02
2023-02-09T18:49:40.785Z,102208.59
2023-02-09T18:52:10.228Z,102210.59
2023-02-09T18:54:38.214Z,102202.58
2023-02-09T18:57:06.239Z,102206.23
2023-02-09T18:59:34.577Z,102208.20
2023-02-09T19:02:02.785Z,102206.02
2023-02-09T19:04:31.195Z,102204.08
2023-02-09T19:07:06.396Z,102198.37
2023-02-09T19:09:36.308Z,102198.14
2023-02-09T19:12:04.223Z,102193.56
2023-02-09T19:14:39.425Z,102188.20
2023-02-09T19:17:10.008Z,102188.92
2023-02-09T19:19:38.824Z,102190.20
2023-02-09T19:22:06.777Z,102187.22
2023-02-09T19:24:35.863Z,102181.38
2023-02-09T19:27:06.673Z,102179.13
2023-02-09T19:29:35.467Z,102175.70
2023-02-09T19:32:04.265Z,102171.52
2023-02-09T19:34:35.169Z,102170.92
2023-02-09T19:37:05.403Z,102164.08
2023-02-09T19:39:35.182Z,102163.88
2023-02-09T19:42:03.022Z,102166.02
2023-02-09T19:44:31.642Z,102169.65
2023-02-09T19:46:59.645Z,102167.20
2023-02-09T19:49:27.512Z,102167.30
2023-02-09T19:51:55.361Z,102163.10
2023-02-09T19:54:23.177Z,102158.68
2023-02-09T19:56:51.817Z,102155.84
2023-02-09T19:59:19.717Z,102154.15
2023-02-09T20:01:47.596Z,102153.15
2023-02-09T20:04:15.562Z,102156.45
2023-02-09T20:06:43.575Z,102151.08
2023-02-09T20:09:12.609Z,102146.61
2023-02-09T20:11:40.568Z,102144.54
2023-02-09T20:14:08.565Z,102141.38
2023-02-09T20:16:36.608Z,102141.02
2023-02-09T20:19:05.422Z,102139.72
2023-02-09T20:21:35.561Z,102137.13
2023-02-09T20:24:09.477Z,102134.52
2023-02-09T20:26:39.135Z,102131.61
2023-02-09T20:29:07.338Z,102130.77
2023-02-09T20:31:36.842Z,102123.78
2023-02-09T20:34:06.251Z,102120.70
2023-02-09T20:36:35.809Z,102120.16
2023-02-09T20:39:04.830Z,102119.73
2023-02-09T20:41:33.038Z,102112.92
2023-02-09T20:44:19.793Z,102111.66
2023-02-09T20:46:57.022Z,102107.74
2023-02-09T20:49:29.905Z,102104.98
2023-02-09T20:51:58.130Z,102101.33
2023-02-09T20:54:26.248Z,102095.05
2023-02-09T20:56:54.444Z,102096.11
2023-02-09T20:59:22.399Z,102093.91
2023-02-09T21:01:50.557Z,102090.98
2023-02-09T21:04:18.553Z,102091.01
2023-02-09T21:06:46.759Z,102091.75
2023-02-09T21:09:14.990Z,102087.89
2023-02-09T21:11:47.601Z,102084.07
2023-02-09T21:14:27.190Z,102084.84
2023-02-09T21:16:56.268Z,102087.52
2023-02-09T21:19:24.554Z,102087.05
2023-02-09T21:21:52.520Z,102085.05
2023-02-09T21:24:20.394Z,102082.05
2023-02-09T21:26:48.261Z,102083.58
2023-02-09T21:29:16.502Z,102079.52
2023-02-09T21:31:44.909Z,102078.02
2023-02-09T21:34:14.795Z,102077.31
2023-02-09T21:36:42.743Z,102076.25
2023-02-09T21:39:10.541Z,102076.92
2023-02-09T21:41:57.163Z,102077.16
2023-02-09T21:44:25.060Z,102072.38
2023-02-09T21:46:54.082Z,102070.97
2023-02-09T21:49:22.419Z,102065.06
2023-02-09T21:51:50.349Z,102065.75
2023-02-09T21:54:18.955Z,102063.85
2023-02-09T21:56:46.831Z,102064.08
2023-02-09T21:59:15.104Z,102063.46
2023-02-09T22:01:43.549Z,102061.82
2023-02-09T22:04:11.476Z,102058.75
2023-02-09T22:06:41.710Z,102054.23
2023-02-09T22:09:09.677Z,102051.52
2023-02-09T22:11:38.681Z,102053.13
2023-02-09T22:14:07.296Z,102056.79
2023-02-09T22:16:35.672Z,102054.38
2023-02-09T22:19:03.890Z,102053.11
2023-02-09T22:21:31.727Z,102050.00
2023-02-09T22:23:59.985Z,102045.27
2023-02-09T22:26:27.875Z,102041.95
2023-02-09T22:28:55.714Z,102037.46
2023-02-09T22:31:23.492Z,102034.36
2023-02-09T22:33:54.548Z,102031.56
2023-02-09T22:36:23.553Z,102027.27
2023-02-09T22:38:51.757Z,102023.51
2023-02-09T22:41:21.607Z,102021.23
2023-02-09T22:44:06.131Z,102025.31
2023-02-09T22:46:35.567Z,102018.31
2023-02-09T22:49:05.934Z,102013.29
2023-02-09T22:51:34.408Z,102013.75
2023-02-09T22:54:02.567Z,102009.55
2023-02-09T22:56:31.013Z,102005.86
2023-02-09T22:58:59.873Z,102001.78
2023-02-09T23:01:27.974Z,102001.66
2023-02-09T23:03:56.062Z,101999.96
2023-02-09T23:06:26.945Z,102000.11
2023-02-09T23:08:56.018Z,101998.64
2023-02-09T23:11:24.334Z,101998.81
2023-02-09T23:14:03.792Z,101999.91
2023-02-09T23:16:36.867Z,101995.96
2023-02-09T23:19:06.362Z,101994.77
2023-02-09T23:21:39.326Z,101994.95
2023-02-09T23:24:07.645Z,101990.61
2023-02-09T23:26:36.626Z,101987.33
2023-02-09T23:29:06.754Z,101982.64
2023-02-09T23:31:35.530Z,101979.12
2023-02-09T23:34:03.530Z,101979.60
2023-02-09T23:36:33.334Z,101978.49
2023-02-09T23:39:03.316Z,101978.30
2023-02-09T23:41:34.420Z,101974.60
2023-02-09T23:44:04.410Z,101972.84
2023-02-09T23:46:32.408Z,101970.79
2023-02-09T23:49:00.871Z,101968.77
2023-02-09T23:51:31.252Z,101966.91
2023-02-09T23:54:00.584Z,101965.02
2023-02-09T23:56:29.928Z,101961.60
2023-02-09T23:58:57.788Z,101957.35
